sensor_id;sensor_type;location;lat;lon;timestamp;P1;durP1;ratioP1;P2;durP2;ratioP2
7493;SDS011;3788;49.902;8.590;2023-02-01T00:00:26;6.23;;;3.37;;
7493;SDS011;3788;49.902;8.590;2023-02-01T00:02:53;4.77;;;3.87;;
7493;SDS011;3788;49.902;8.590;2023-02-01T00:05:20;5.43;;;3.57;;
7493;SDS011;3788;49.902;8.590;2023-02-01T00:07:46;3.27;;;2.93;;
7493;SDS011;3788;49.902;8.590;2023-02-01T00:10:13;4.93;;;3.30;;
7493;SDS011;3788;49.902;8.590;2023-02-01T00:12:40;4.27;;;3.57;;
7493;SDS011;3788;49.902;8.590;2023-02-01T00:15:09;4.10;;;3.47;;
7493;SDS011;3788;49.902;8.590;2023-02-01T00:17:36;3.93;;;3.57;;
7493;SDS011;3788;49.902;8.590;2023-02-01T00:20:02;4.33;;;3.60;;
7493;SDS011;3788;49.902;8.590;2023-02-01T00:22:30;4.27;;;3.87;;
7493;SDS011;3788;49.902;8.590;2023-02-01T00:24:56;3.97;;;3.60;;
7493;SDS011;3788;49.902;8.590;2023-02-01T00:27:23;4.20;;;3.80;;
7493;SDS011;3788;49.902;8.590;2023-02-01T00:29:50;6.33;;;4.07;;
7493;SDS011;3788;49.902;8.590;2023-02-01T00:32:18;4.10;;;3.57;;
7493;SDS011;3788;49.902;8.590;2023-02-01T00:34:45;4.10;;;3.77;;
7493;SDS011;3788;49.902;8.590;2023-02-01T00:37:11;4.83;;;3.73;;
7493;SDS011;3788;49.902;8.590;2023-02-01T00:39:38;4.97;;;4.37;;
7493;SDS011;3788;49.902;8.590;2023-02-01T00:42:05;3.30;;;3.00;;
7493;SDS011;3788;49.902;8.590;2023-02-01T00:44:31;4.10;;;3.70;;
7493;SDS011;3788;49.902;8.590;2023-02-01T00:47:00;3.93;;;3.57;;
7493;SDS011;3788;49.902;8.590;2023-02-01T00:49:28;5.23;;;3.90;;
7493;SDS011;3788;49.902;8.590;2023-02-01T00:51:55;5.73;;;3.93;;
7493;SDS011;3788;49.902;8.590;2023-02-01T00:54:22;4.60;;;4.17;;
7493;SDS011;3788;49.902;8.590;2023-02-01T00:56:48;5.20;;;4.33;;
7493;SDS011;3788;49.902;8.590;2023-02-01T00:59:15;5.57;;;4.13;;
7493;SDS011;3788;49.902;8.590;2023-02-01T01:01:42;4.70;;;3.83;;
7493;SDS011;3788;49.902;8.590;2023-02-01T01:04:09;5.07;;;4.10;;
7493;SDS011;3788;49.902;8.590;2023-02-01T01:06:37;4.13;;;3.40;;
7493;SDS011;3788;49.902;8.590;2023-02-01T01:09:06;4.87;;;3.97;;
7493;SDS011;3788;49.902;8.590;2023-02-01T01:11:34;4.83;;;4.10;;
7493;SDS011;3788;49.902;8.590;2023-02-01T01:14:02;5.77;;;4.37;;
7493;SDS011;3788;49.902;8.590;2023-02-01T01:16:31;4.00;;;3.60;;
7493;SDS011;3788;49.902;8.590;2023-02-01T01:18:59;4.50;;;3.50;;
7493;SDS011;3788;49.902;8.590;2023-02-01T01:21:26;4.80;;;4.30;;
7493;SDS011;3788;49.902;8.590;2023-02-01T01:23:55;5.47;;;3.50;;
7493;SDS011;3788;49.902;8.590;2023-02-01T01:26:22;4.87;;;3.87;;
7493;SDS011;3788;49.902;8.590;2023-02-01T01:28:50;5.03;;;3.80;;
7493;SDS011;3788;49.902;8.590;2023-02-01T01:31:18;4.60;;;4.10;;
7493;SDS011;3788;49.902;8.590;2023-02-01T01:33:50;5.10;;;3.90;;
7493;SDS011;3788;49.902;8.590;2023-02-01T01:36:18;6.43;;;4.57;;
7493;SDS011;3788;49.902;8.590;2023-02-01T01:38:46;4.07;;;3.77;;
7493;SDS011;3788;49.902;8.590;2023-02-01T01:41:15;5.70;;;4.60;;
7493;SDS011;3788;49.902;8.590;2023-02-01T01:43:54;5.13;;;4.20;;
7493;SDS011;3788;49.902;8.590;2023-02-01T01:46:23;5.73;;;4.87;;
7493;SDS011;3788;49.902;8.590;2023-02-01T01:48:52;6.97;;;4.40;;
7493;SDS011;3788;49.902;8.590;2023-02-01T01:51:23;4.60;;;4.20;;
7493;SDS011;3788;49.902;8.590;2023-02-01T01:53:53;6.10;;;4.57;;
7493;SDS011;3788;49.902;8.590;2023-02-01T01:56:26;5.40;;;4.47;;
7493;SDS011;3788;49.902;8.590;2023-02-01T01:58:55;5.37;;;4.50;;
7493;SDS011;3788;49.902;8.590;2023-02-01T02:01:22;6.90;;;4.70;;
7493;SDS011;3788;49.902;8.590;2023-02-01T02:03:49;5.40;;;4.70;;
7493;SDS011;3788;49.902;8.590;2023-02-01T02:06:20;5.57;;;4.50;;
7493;SDS011;3788;49.902;8.590;2023-02-01T02:08:56;6.37;;;4.90;;
7493;SDS011;3788;49.902;8.590;2023-02-01T02:11:23;6.40;;;4.20;;
7493;SDS011;3788;49.902;8.590;2023-02-01T02:13:52;5.33;;;4.17;;
7493;SDS011;3788;49.902;8.590;2023-02-01T02:16:26;5.93;;;4.63;;
7493;SDS011;3788;49.902;8.590;2023-02-01T02:19:10;6.70;;;4.63;;
7493;SDS011;3788;49.902;8.590;2023-02-01T02:22:07;4.90;;;4.40;;
7493;SDS011;3788;49.902;8.590;2023-02-01T02:28:11;7.63;;;5.40;;
7493;SDS011;3788;49.902;8.590;2023-02-01T02:31:04;5.63;;;4.90;;
7493;SDS011;3788;49.902;8.590;2023-02-01T02:36:37;5.47;;;4.53;;
7493;SDS011;3788;49.902;8.590;2023-02-01T02:39:14;6.27;;;4.80;;
7493;SDS011;3788;49.902;8.590;2023-02-01T02:41:48;5.63;;;4.47;;
7493;SDS011;3788;49.902;8.590;2023-02-01T02:44:39;5.13;;;4.63;;
7493;SDS011;3788;49.902;8.590;2023-02-01T02:47:40;7.03;;;4.37;;
7493;SDS011;3788;49.902;8.590;2023-02-01T02:50:15;4.80;;;4.20;;
7493;SDS011;3788;49.902;8.590;2023-02-01T02:53:07;4.77;;;4.23;;
7493;SDS011;3788;49.902;8.590;2023-02-01T02:55:55;6.13;;;4.57;;
7493;SDS011;3788;49.902;8.590;2023-02-01T02:58:41;5.10;;;4.60;;
7493;SDS011;3788;49.902;8.590;2023-02-01T03:01:29;5.07;;;4.40;;
7493;SDS011;3788;49.902;8.590;2023-02-01T03:04:14;5.53;;;4.57;;
7493;SDS011;3788;49.902;8.590;2023-02-01T03:06:44;4.60;;;4.20;;
7493;SDS011;3788;49.902;8.590;2023-02-01T03:09:13;5.33;;;4.60;;
7493;SDS011;3788;49.902;8.590;2023-02-01T03:11:45;6.90;;;4.40;;
7493;SDS011;3788;49.902;8.590;2023-02-01T03:14:32;5.23;;;4.20;;
7493;SDS011;3788;49.902;8.590;2023-02-01T03:19:27;6.63;;;4.40;;
7493;SDS011;3788;49.902;8.590;2023-02-01T03:21:59;5.47;;;4.50;;
7493;SDS011;3788;49.902;8.590;2023-02-01T03:24:30;4.13;;;3.70;;
7493;SDS011;3788;49.902;8.590;2023-02-01T03:27:01;6.47;;;4.20;;
7493;SDS011;3788;49.902;8.590;2023-02-01T03:29:34;4.77;;;4.00;;
7493;SDS011;3788;49.902;8.590;2023-02-01T03:32:06;7.87;;;5.03;;
7493;SDS011;3788;49.902;8.590;2023-02-01T03:34:34;6.73;;;4.50;;
7493;SDS011;3788;49.902;8.590;2023-02-01T03:37:04;6.90;;;4.37;;
7493;SDS011;3788;49.902;8.590;2023-02-01T03:39:34;5.07;;;4.27;;
7493;SDS011;3788;49.902;8.590;2023-02-01T03:42:05;6.57;;;4.30;;
7493;SDS011;3788;49.902;8.590;2023-02-01T03:44:39;6.73;;;4.20;;
7493;SDS011;3788;49.902;8.590;2023-02-01T03:47:12;5.07;;;4.23;;
7493;SDS011;3788;49.902;8.590;2023-02-01T03:49:45;4.60;;;4.20;;
7493;SDS011;3788;49.902;8.590;2023-02-01T03:52:17;8.17;;;4.50;;
7493;SDS011;3788;49.902;8.590;2023-02-01T03:54:48;6.43;;;4.70;;
7493;SDS011;3788;49.902;8.590;2023-02-01T03:57:16;7.77;;;4.70;;
7493;SDS011;3788;49.902;8.590;2023-02-01T03:59:47;5.10;;;4.10;;
7493;SDS011;3788;49.902;8.590;2023-02-01T04:02:15;6.13;;;4.63;;
7493;SDS011;3788;49.902;8.590;2023-02-01T04:04:42;5.80;;;4.00;;
7493;SDS011;3788;49.902;8.590;2023-02-01T04:07:09;5.10;;;4.57;;
7493;SDS011;3788;49.902;8.590;2023-02-01T04:09:37;5.77;;;4.60;;
7493;SDS011;3788;49.902;8.590;2023-02-01T04:12:03;5.90;;;4.60;;
7493;SDS011;3788;49.902;8.590;2023-02-01T04:14:30;5.70;;;4.50;;
7493;SDS011;3788;49.902;8.590;2023-02-01T04:16:57;6.60;;;4.50;;
7493;SDS011;3788;49.902;8.590;2023-02-01T04:19:23;6.93;;;4.30;;
7493;SDS011;3788;49.902;8.590;2023-02-01T04:21:50;6.33;;;4.53;;
7493;SDS011;3788;49.902;8.590;2023-02-01T04:24:17;6.60;;;4.60;;
7493;SDS011;3788;49.902;8.590;2023-02-01T04:26:45;5.17;;;4.17;;
7493;SDS011;3788;49.902;8.590;2023-02-01T04:29:12;4.27;;;3.87;;
7493;SDS011;3788;49.902;8.590;2023-02-01T04:31:39;6.23;;;4.40;;
7493;SDS011;3788;49.902;8.590;2023-02-01T04:34:06;5.03;;;4.00;;
7493;SDS011;3788;49.902;8.590;2023-02-01T04:36:32;9.37;;;4.60;;
7493;SDS011;3788;49.902;8.590;2023-02-01T04:38:59;4.43;;;4.03;;
7493;SDS011;3788;49.902;8.590;2023-02-01T04:41:26;5.37;;;4.20;;
7493;SDS011;3788;49.902;8.590;2023-02-01T04:43:55;4.63;;;3.83;;
7493;SDS011;3788;49.902;8.590;2023-02-01T04:46:22;4.03;;;3.30;;
7493;SDS011;3788;49.902;8.590;2023-02-01T04:48:48;4.00;;;3.50;;
7493;SDS011;3788;49.902;8.590;2023-02-01T04:51:15;4.93;;;3.93;;
7493;SDS011;3788;49.902;8.590;2023-02-01T04:53:43;4.30;;;3.73;;
7493;SDS011;3788;49.902;8.590;2023-02-01T04:56:10;6.53;;;4.20;;
7493;SDS011;3788;49.902;8.590;2023-02-01T04:58:37;5.37;;;3.90;;
7493;SDS011;3788;49.902;8.590;2023-02-01T05:01:05;5.40;;;3.50;;
7493;SDS011;3788;49.902;8.590;2023-02-01T05:03:33;5.93;;;3.50;;
7493;SDS011;3788;49.902;8.590;2023-02-01T05:06:00;5.27;;;3.73;;
7493;SDS011;3788;49.902;8.590;2023-02-01T05:08:29;3.77;;;3.30;;
7493;SDS011;3788;49.902;8.590;2023-02-01T05:10:55;4.63;;;3.50;;
7493;SDS011;3788;49.902;8.590;2023-02-01T05:13:23;3.87;;;3.00;;
7493;SDS011;3788;49.902;8.590;2023-02-01T05:16:09;3.20;;;2.90;;
7493;SDS011;3788;49.902;8.590;2023-02-01T05:18:35;4.03;;;3.20;;
7493;SDS011;3788;49.902;8.590;2023-02-01T05:21:02;4.67;;;2.70;;
7493;SDS011;3788;49.902;8.590;2023-02-01T05:23:29;4.63;;;2.83;;
7493;SDS011;3788;49.902;8.590;2023-02-01T05:25:58;2.00;;;1.90;;
7493;SDS011;3788;49.902;8.590;2023-02-01T05:28:25;3.00;;;2.13;;
7493;SDS011;3788;49.902;8.590;2023-02-01T05:30:52;3.13;;;2.10;;
7493;SDS011;3788;49.902;8.590;2023-02-01T05:33:21;3.43;;;1.90;;
7493;SDS011;3788;49.902;8.590;2023-02-01T05:35:47;2.33;;;2.00;;
7493;SDS011;3788;49.902;8.590;2023-02-01T05:38:15;4.87;;;2.30;;
7493;SDS011;3788;49.902;8.590;2023-02-01T05:40:42;4.17;;;2.53;;
7493;SDS011;3788;49.902;8.590;2023-02-01T05:43:14;2.70;;;2.27;;
7493;SDS011;3788;49.902;8.590;2023-02-01T05:45:41;2.80;;;2.00;;
7493;SDS011;3788;49.902;8.590;2023-02-01T05:48:07;3.83;;;2.20;;
7493;SDS011;3788;49.902;8.590;2023-02-01T05:50:36;6.83;;;2.43;;
7493;SDS011;3788;49.902;8.590;2023-02-01T05:53:02;6.03;;;2.27;;
7493;SDS011;3788;49.902;8.590;2023-02-01T05:55:29;3.27;;;1.90;;
7493;SDS011;3788;49.902;8.590;2023-02-01T05:57:56;2.90;;;1.70;;
7493;SDS011;3788;49.902;8.590;2023-02-01T06:00:22;2.13;;;1.80;;
7493;SDS011;3788;49.902;8.590;2023-02-01T06:02:49;3.60;;;1.90;;
7493;SDS011;3788;49.902;8.590;2023-02-01T06:05:16;2.73;;;1.60;;
7493;SDS011;3788;49.902;8.590;2023-02-01T06:07:44;3.37;;;1.53;;
7493;SDS011;3788;49.902;8.590;2023-02-01T06:10:11;3.47;;;1.33;;
7493;SDS011;3788;49.902;8.590;2023-02-01T06:12:39;2.30;;;1.27;;
7493;SDS011;3788;49.902;8.590;2023-02-01T06:15:06;1.90;;;1.10;;
7493;SDS011;3788;49.902;8.590;2023-02-01T06:17:33;1.63;;;1.33;;
7493;SDS011;3788;49.902;8.590;2023-02-01T06:20:00;1.43;;;1.30;;
7493;SDS011;3788;49.902;8.590;2023-02-01T06:22:28;3.37;;;1.30;;
7493;SDS011;3788;49.902;8.590;2023-02-01T06:24:56;1.43;;;1.30;;
7493;SDS011;3788;49.902;8.590;2023-02-01T06:27:23;2.00;;;1.70;;
7493;SDS011;3788;49.902;8.590;2023-02-01T06:29:50;5.07;;;3.30;;
7493;SDS011;3788;49.902;8.590;2023-02-01T06:32:17;4.77;;;3.03;;
7493;SDS011;3788;49.902;8.590;2023-02-01T06:34:44;2.73;;;1.70;;
7493;SDS011;3788;49.902;8.590;2023-02-01T06:37:10;2.27;;;2.07;;
7493;SDS011;3788;49.902;8.590;2023-02-01T06:39:37;2.23;;;1.60;;
7493;SDS011;3788;49.902;8.590;2023-02-01T06:42:05;2.00;;;1.33;;
7493;SDS011;3788;49.902;8.590;2023-02-01T06:44:32;2.77;;;1.53;;
7493;SDS011;3788;49.902;8.590;2023-02-01T06:46:58;2.73;;;1.57;;
7493;SDS011;3788;49.902;8.590;2023-02-01T06:49:25;2.80;;;1.73;;
7493;SDS011;3788;49.902;8.590;2023-02-01T06:51:52;3.53;;;1.60;;
7493;SDS011;3788;49.902;8.590;2023-02-01T06:54:18;3.97;;;2.43;;
7493;SDS011;3788;49.902;8.590;2023-02-01T06:56:45;2.77;;;2.00;;
7493;SDS011;3788;49.902;8.590;2023-02-01T06:59:13;5.53;;;2.17;;
7493;SDS011;3788;49.902;8.590;2023-02-01T07:01:40;3.20;;;1.70;;
7493;SDS011;3788;49.902;8.590;2023-02-01T07:04:08;3.43;;;1.60;;
7493;SDS011;3788;49.902;8.590;2023-02-01T07:06:36;3.57;;;2.10;;
7493;SDS011;3788;49.902;8.590;2023-02-01T07:09:03;5.30;;;2.10;;
7493;SDS011;3788;49.902;8.590;2023-02-01T07:11:30;5.17;;;1.80;;
7493;SDS011;3788;49.902;8.590;2023-02-01T07:13:57;3.43;;;1.97;;
7493;SDS011;3788;49.902;8.590;2023-02-01T07:16:25;4.53;;;2.30;;
7493;SDS011;3788;49.902;8.590;2023-02-01T07:18:52;4.40;;;2.13;;
7493;SDS011;3788;49.902;8.590;2023-02-01T07:21:19;4.60;;;2.13;;
7493;SDS011;3788;49.902;8.590;2023-02-01T07:23:46;3.87;;;1.80;;
7493;SDS011;3788;49.902;8.590;2023-02-01T07:26:13;2.07;;;1.33;;
7493;SDS011;3788;49.902;8.590;2023-02-01T07:28:41;4.13;;;1.90;;
7493;SDS011;3788;49.902;8.590;2023-02-01T07:31:09;3.20;;;1.97;;
7493;SDS011;3788;49.902;8.590;2023-02-01T07:33:39;4.37;;;1.70;;
7493;SDS011;3788;49.902;8.590;2023-02-01T07:36:08;2.83;;;1.80;;
7493;SDS011;3788;49.902;8.590;2023-02-01T07:38:38;3.80;;;1.80;;
7493;SDS011;3788;49.902;8.590;2023-02-01T07:41:05;3.03;;;1.83;;
7493;SDS011;3788;49.902;8.590;2023-02-01T07:43:33;5.50;;;2.00;;
7493;SDS011;3788;49.902;8.590;2023-02-01T07:46:00;4.83;;;2.00;;
7493;SDS011;3788;49.902;8.590;2023-02-01T07:48:28;4.67;;;2.17;;
7493;SDS011;3788;49.902;8.590;2023-02-01T07:50:59;6.87;;;2.50;;
7493;SDS011;3788;49.902;8.590;2023-02-01T07:53:28;4.40;;;2.00;;
7493;SDS011;3788;49.902;8.590;2023-02-01T07:55:55;3.93;;;2.33;;
7493;SDS011;3788;49.902;8.590;2023-02-01T07:58:24;6.37;;;2.47;;
7493;SDS011;3788;49.902;8.590;2023-02-01T08:00:51;4.60;;;2.63;;
7493;SDS011;3788;49.902;8.590;2023-02-01T08:03:36;5.20;;;2.60;;
7493;SDS011;3788;49.902;8.590;2023-02-01T08:06:04;4.40;;;2.20;;
7493;SDS011;3788;49.902;8.590;2023-02-01T08:08:31;2.57;;;2.20;;
7493;SDS011;3788;49.902;8.590;2023-02-01T08:10:59;3.27;;;2.37;;
7493;SDS011;3788;49.902;8.590;2023-02-01T08:13:27;5.03;;;2.37;;
7493;SDS011;3788;49.902;8.590;2023-02-01T08:15:57;6.83;;;2.73;;
7493;SDS011;3788;49.902;8.590;2023-02-01T08:18:24;4.20;;;2.00;;
7493;SDS011;3788;49.902;8.590;2023-02-01T08:20:50;3.03;;;2.07;;
7493;SDS011;3788;49.902;8.590;2023-02-01T08:23:19;4.83;;;2.40;;
7493;SDS011;3788;49.902;8.590;2023-02-01T08:25:45;5.50;;;2.30;;
7493;SDS011;3788;49.902;8.590;2023-02-01T08:28:13;5.10;;;2.60;;
7493;SDS011;3788;49.902;8.590;2023-02-01T08:30:40;6.90;;;2.57;;
7493;SDS011;3788;49.902;8.590;2023-02-01T08:33:08;4.97;;;2.63;;
7493;SDS011;3788;49.902;8.590;2023-02-01T08:35:36;6.60;;;2.50;;
7493;SDS011;3788;49.902;8.590;2023-02-01T08:38:03;4.83;;;2.70;;
7493;SDS011;3788;49.902;8.590;2023-02-01T08:40:31;6.57;;;2.33;;
7493;SDS011;3788;49.902;8.590;2023-02-01T08:42:58;7.20;;;2.77;;
7493;SDS011;3788;49.902;8.590;2023-02-01T08:45:26;5.97;;;2.47;;
7493;SDS011;3788;49.902;8.590;2023-02-01T08:47:55;6.23;;;2.13;;
7493;SDS011;3788;49.902;8.590;2023-02-01T08:50:22;5.20;;;2.20;;
7493;SDS011;3788;49.902;8.590;2023-02-01T08:52:50;5.73;;;2.70;;
7493;SDS011;3788;49.902;8.590;2023-02-01T08:55:16;4.13;;;2.13;;
7493;SDS011;3788;49.902;8.590;2023-02-01T08:57:45;6.40;;;2.27;;
7493;SDS011;3788;49.902;8.590;2023-02-01T09:00:13;6.47;;;2.57;;
7493;SDS011;3788;49.902;8.590;2023-02-01T09:02:41;7.73;;;2.57;;
7493;SDS011;3788;49.902;8.590;2023-02-01T09:05:08;6.13;;;2.80;;
7493;SDS011;3788;49.902;8.590;2023-02-01T09:07:35;7.67;;;2.83;;
7493;SDS011;3788;49.902;8.590;2023-02-01T09:10:03;4.23;;;2.30;;
7493;SDS011;3788;49.902;8.590;2023-02-01T09:12:31;7.00;;;2.57;;
7493;SDS011;3788;49.902;8.590;2023-02-01T09:14:59;3.93;;;2.23;;
7493;SDS011;3788;49.902;8.590;2023-02-01T09:17:29;4.67;;;2.03;;
7493;SDS011;3788;49.902;8.590;2023-02-01T09:19:56;5.17;;;2.60;;
7493;SDS011;3788;49.902;8.590;2023-02-01T09:22:23;5.10;;;2.30;;
7493;SDS011;3788;49.902;8.590;2023-02-01T09:24:50;9.23;;;2.90;;
7493;SDS011;3788;49.902;8.590;2023-02-01T09:27:18;8.13;;;3.20;;
7493;SDS011;3788;49.902;8.590;2023-02-01T09:29:44;7.47;;;2.07;;
7493;SDS011;3788;49.902;8.590;2023-02-01T09:32:16;7.80;;;3.03;;
7493;SDS011;3788;49.902;8.590;2023-02-01T09:34:42;7.87;;;2.10;;
7493;SDS011;3788;49.902;8.590;2023-02-01T09:37:09;7.20;;;2.00;;
7493;SDS011;3788;49.902;8.590;2023-02-01T09:39:36;9.33;;;2.70;;
7493;SDS011;3788;49.902;8.590;2023-02-01T09:42:06;5.60;;;2.33;;
7493;SDS011;3788;49.902;8.590;2023-02-01T09:44:42;4.13;;;1.93;;
7493;SDS011;3788;49.902;8.590;2023-02-01T09:47:28;6.70;;;2.40;;
7493;SDS011;3788;49.902;8.590;2023-02-01T09:49:59;5.50;;;2.17;;
7493;SDS011;3788;49.902;8.590;2023-02-01T09:52:28;7.90;;;2.63;;
7493;SDS011;3788;49.902;8.590;2023-02-01T09:55:01;6.17;;;1.93;;
7493;SDS011;3788;49.902;8.590;2023-02-01T09:57:40;5.33;;;2.30;;
7493;SDS011;3788;49.902;8.590;2023-02-01T10:00:13;9.63;;;1.83;;
7493;SDS011;3788;49.902;8.590;2023-02-01T10:02:45;5.70;;;2.47;;
7493;SDS011;3788;49.902;8.590;2023-02-01T10:05:12;6.63;;;2.50;;
7493;SDS011;3788;49.902;8.590;2023-02-01T10:07:43;7.90;;;2.50;;
7493;SDS011;3788;49.902;8.590;2023-02-01T10:10:17;5.77;;;2.33;;
7493;SDS011;3788;49.902;8.590;2023-02-01T10:13:01;4.70;;;2.00;;
7493;SDS011;3788;49.902;8.590;2023-02-01T10:15:51;6.67;;;2.43;;
7493;SDS011;3788;49.902;8.590;2023-02-01T10:21:19;7.17;;;2.17;;
7493;SDS011;3788;49.902;8.590;2023-02-01T10:24:01;7.93;;;2.87;;
7493;SDS011;3788;49.902;8.590;2023-02-01T10:26:36;7.27;;;3.13;;
7493;SDS011;3788;49.902;8.590;2023-02-01T10:29:10;6.50;;;2.73;;
7493;SDS011;3788;49.902;8.590;2023-02-01T10:31:42;8.80;;;2.97;;
7493;SDS011;3788;49.902;8.590;2023-02-01T10:34:13;10.57;;;3.10;;
7493;SDS011;3788;49.902;8.590;2023-02-01T10:36:47;6.40;;;1.90;;
7493;SDS011;3788;49.902;8.590;2023-02-01T10:39:18;4.67;;;2.17;;
7493;SDS011;3788;49.902;8.590;2023-02-01T10:41:45;6.90;;;2.10;;
7493;SDS011;3788;49.902;8.590;2023-02-01T10:44:13;5.30;;;2.07;;
7493;SDS011;3788;49.902;8.590;2023-02-01T10:46:42;8.13;;;2.30;;
7493;SDS011;3788;49.902;8.590;2023-02-01T10:49:11;5.27;;;2.10;;
7493;SDS011;3788;49.902;8.590;2023-02-01T10:51:45;4.67;;;2.17;;
7493;SDS011;3788;49.902;8.590;2023-02-01T10:54:16;5.60;;;2.10;;
7493;SDS011;3788;49.902;8.590;2023-02-01T10:56:46;9.27;;;2.40;;
7493;SDS011;3788;49.902;8.590;2023-02-01T10:59:15;7.13;;;2.93;;
7493;SDS011;3788;49.902;8.590;2023-02-01T11:01:43;8.27;;;2.80;;
7493;SDS011;3788;49.902;8.590;2023-02-01T11:04:12;7.60;;;2.27;;
7493;SDS011;3788;49.902;8.590;2023-02-01T11:06:43;11.07;;;2.73;;
7493;SDS011;3788;49.902;8.590;2023-02-01T11:09:14;6.40;;;2.17;;
7493;SDS011;3788;49.902;8.590;2023-02-01T11:11:55;7.03;;;2.40;;
7493;SDS011;3788;49.902;8.590;2023-02-01T11:14:27;6.53;;;2.53;;
7493;SDS011;3788;49.902;8.590;2023-02-01T11:17:01;9.40;;;4.03;;
7493;SDS011;3788;49.902;8.590;2023-02-01T11:19:43;8.93;;;2.60;;
7493;SDS011;3788;49.902;8.590;2023-02-01T11:22:12;8.40;;;2.63;;
7493;SDS011;3788;49.902;8.590;2023-02-01T11:24:41;7.27;;;2.03;;
7493;SDS011;3788;49.902;8.590;2023-02-01T11:27:13;5.23;;;2.23;;
7493;SDS011;3788;49.902;8.590;2023-02-01T11:29:43;7.47;;;2.80;;
7493;SDS011;3788;49.902;8.590;2023-02-01T11:32:12;7.30;;;1.80;;
7493;SDS011;3788;49.902;8.590;2023-02-01T11:34:42;9.97;;;2.50;;
7493;SDS011;3788;49.902;8.590;2023-02-01T11:37:14;5.33;;;1.80;;
7493;SDS011;3788;49.902;8.590;2023-02-01T11:39:43;6.37;;;2.10;;
7493;SDS011;3788;49.902;8.590;2023-02-01T11:42:20;5.63;;;2.00;;
7493;SDS011;3788;49.902;8.590;2023-02-01T11:44:47;5.50;;;1.70;;
7493;SDS011;3788;49.902;8.590;2023-02-01T11:47:21;8.63;;;2.57;;
7493;SDS011;3788;49.902;8.590;2023-02-01T11:49:50;9.47;;;2.07;;
7493;SDS011;3788;49.902;8.590;2023-02-01T11:52:24;5.40;;;2.17;;
7493;SDS011;3788;49.902;8.590;2023-02-01T11:55:30;7.40;;;2.77;;
7493;SDS011;3788;49.902;8.590;2023-02-01T11:58:12;7.60;;;2.40;;
7493;SDS011;3788;49.902;8.590;2023-02-01T12:00:58;5.17;;;1.87;;
7493;SDS011;3788;49.902;8.590;2023-02-01T12:06:48;4.10;;;2.40;;
7493;SDS011;3788;49.902;8.590;2023-02-01T12:09:25;6.43;;;2.53;;
7493;SDS011;3788;49.902;8.590;2023-02-01T12:12:08;6.90;;;2.27;;
7493;SDS011;3788;49.902;8.590;2023-02-01T12:14:50;7.03;;;2.00;;
7493;SDS011;3788;49.902;8.590;2023-02-01T12:17:34;4.50;;;2.00;;
7493;SDS011;3788;49.902;8.590;2023-02-01T12:20:28;6.73;;;2.10;;
7493;SDS011;3788;49.902;8.590;2023-02-01T12:23:17;8.00;;;2.63;;
7493;SDS011;3788;49.902;8.590;2023-02-01T12:31:41;11.57;;;3.40;;
7493;SDS011;3788;49.902;8.590;2023-02-01T12:34:27;6.33;;;2.53;;
7493;SDS011;3788;49.902;8.590;2023-02-01T12:37:04;5.20;;;2.77;;
7493;SDS011;3788;49.902;8.590;2023-02-01T12:39:39;3.20;;;1.90;;
7493;SDS011;3788;49.902;8.590;2023-02-01T12:42:13;4.80;;;2.03;;
7493;SDS011;3788;49.902;8.590;2023-02-01T12:44:45;6.53;;;2.73;;
7493;SDS011;3788;49.902;8.590;2023-02-01T12:47:18;6.97;;;2.33;;
7493;SDS011;3788;49.902;8.590;2023-02-01T12:49:53;6.27;;;2.23;;
7493;SDS011;3788;49.902;8.590;2023-02-01T12:52:26;4.87;;;1.93;;
7493;SDS011;3788;49.902;8.590;2023-02-01T12:55:01;5.53;;;1.90;;
7493;SDS011;3788;49.902;8.590;2023-02-01T12:57:35;6.13;;;2.07;;
7493;SDS011;3788;49.902;8.590;2023-02-01T13:00:07;5.00;;;2.10;;
7493;SDS011;3788;49.902;8.590;2023-02-01T13:02:49;3.17;;;1.40;;
7493;SDS011;3788;49.902;8.590;2023-02-01T13:05:22;4.23;;;2.17;;
7493;SDS011;3788;49.902;8.590;2023-02-01T13:07:56;6.60;;;2.47;;
7493;SDS011;3788;49.902;8.590;2023-02-01T13:10:30;4.77;;;1.80;;
7493;SDS011;3788;49.902;8.590;2023-02-01T13:13:04;4.97;;;1.83;;
7493;SDS011;3788;49.902;8.590;2023-02-01T13:15:40;9.97;;;2.23;;
7493;SDS011;3788;49.902;8.590;2023-02-01T13:18:13;5.30;;;2.40;;
7493;SDS011;3788;49.902;8.590;2023-02-01T13:20:45;5.93;;;2.37;;
7493;SDS011;3788;49.902;8.590;2023-02-01T13:23:18;3.90;;;1.97;;
7493;SDS011;3788;49.902;8.590;2023-02-01T13:25:52;12.50;;;2.70;;
7493;SDS011;3788;49.902;8.590;2023-02-01T13:28:22;6.13;;;2.27;;
7493;SDS011;3788;49.902;8.590;2023-02-01T13:31:05;7.47;;;2.50;;
7493;SDS011;3788;49.902;8.590;2023-02-01T13:33:51;7.63;;;2.67;;
7493;SDS011;3788;49.902;8.590;2023-02-01T13:36:37;5.33;;;2.00;;
7493;SDS011;3788;49.902;8.590;2023-02-01T13:39:33;6.80;;;2.33;;
7493;SDS011;3788;49.902;8.590;2023-02-01T13:42:15;6.77;;;2.23;;
7493;SDS011;3788;49.902;8.590;2023-02-01T13:44:48;6.80;;;2.17;;
7493;SDS011;3788;49.902;8.590;2023-02-01T13:47:26;6.00;;;2.03;;
7493;SDS011;3788;49.902;8.590;2023-02-01T13:49:56;8.13;;;2.50;;
7493;SDS011;3788;49.902;8.590;2023-02-01T13:52:30;6.37;;;2.20;;
7493;SDS011;3788;49.902;8.590;2023-02-01T13:55:15;4.80;;;2.50;;
7493;SDS011;3788;49.902;8.590;2023-02-01T13:57:52;7.43;;;2.40;;
7493;SDS011;3788;49.902;8.590;2023-02-01T14:00:29;8.07;;;2.20;;
7493;SDS011;3788;49.902;8.590;2023-02-01T14:06:03;6.50;;;1.83;;
7493;SDS011;3788;49.902;8.590;2023-02-01T14:09:13;5.47;;;2.40;;
7493;SDS011;3788;49.902;8.590;2023-02-01T14:11:50;5.73;;;2.10;;
7493;SDS011;3788;49.902;8.590;2023-02-01T14:23:17;8.07;;;1.60;;
7493;SDS011;3788;49.902;8.590;2023-02-01T14:28:42;3.20;;;1.97;;
7493;SDS011;3788;49.902;8.590;2023-02-01T14:31:14;5.83;;;2.37;;
7493;SDS011;3788;49.902;8.590;2023-02-01T14:33:59;5.57;;;2.03;;
7493;SDS011;3788;49.902;8.590;2023-02-01T14:36:38;6.23;;;2.10;;
7493;SDS011;3788;49.902;8.590;2023-02-01T14:39:18;4.80;;;1.53;;
7493;SDS011;3788;49.902;8.590;2023-02-01T14:41:47;6.30;;;1.90;;
7493;SDS011;3788;49.902;8.590;2023-02-01T14:44:25;7.53;;;2.07;;
7493;SDS011;3788;49.902;8.590;2023-02-01T14:47:25;8.87;;;2.20;;
7493;SDS011;3788;49.902;8.590;2023-02-01T14:49:56;5.90;;;1.80;;
7493;SDS011;3788;49.902;8.590;2023-02-01T14:52:42;3.83;;;2.03;;
7493;SDS011;3788;49.902;8.590;2023-02-01T14:55:13;7.33;;;2.23;;
7493;SDS011;3788;49.902;8.590;2023-02-01T14:57:43;6.10;;;1.97;;
7493;SDS011;3788;49.902;8.590;2023-02-01T15:00:17;3.97;;;1.70;;
7493;SDS011;3788;49.902;8.590;2023-02-01T15:02:47;7.40;;;2.17;;
7493;SDS011;3788;49.902;8.590;2023-02-01T15:08:06;6.87;;;1.93;;
7493;SDS011;3788;49.902;8.590;2023-02-01T15:10:42;6.60;;;2.20;;
7493;SDS011;3788;49.902;8.590;2023-02-01T15:13:18;7.13;;;1.87;;
7493;SDS011;3788;49.902;8.590;2023-02-01T15:16:00;7.77;;;1.90;;
7493;SDS011;3788;49.902;8.590;2023-02-01T15:18:28;8.10;;;2.70;;
7493;SDS011;3788;49.902;8.590;2023-02-01T15:20:57;8.77;;;2.90;;
7493;SDS011;3788;49.902;8.590;2023-02-01T15:23:25;5.50;;;1.87;;
7493;SDS011;3788;49.902;8.590;2023-02-01T15:25:53;10.00;;;2.13;;
7493;SDS011;3788;49.902;8.590;2023-02-01T15:28:20;6.13;;;2.77;;
7493;SDS011;3788;49.902;8.590;2023-02-01T15:30:54;8.57;;;2.70;;
7493;SDS011;3788;49.902;8.590;2023-02-01T15:33:26;4.67;;;1.57;;
7493;SDS011;3788;49.902;8.590;2023-02-01T15:35:54;10.27;;;2.20;;
7493;SDS011;3788;49.902;8.590;2023-02-01T15:38:38;5.67;;;1.93;;
7493;SDS011;3788;49.902;8.590;2023-02-01T15:41:10;10.73;;;2.93;;
7493;SDS011;3788;49.902;8.590;2023-02-01T15:43:40;5.03;;;1.70;;
7493;SDS011;3788;49.902;8.590;2023-02-01T15:46:11;6.70;;;2.47;;
7493;SDS011;3788;49.902;8.590;2023-02-01T15:49:00;5.57;;;1.70;;
7493;SDS011;3788;49.902;8.590;2023-02-01T15:51:30;6.07;;;1.77;;
7493;SDS011;3788;49.902;8.590;2023-02-01T15:53:58;6.00;;;1.90;;
7493;SDS011;3788;49.902;8.590;2023-02-01T15:56:28;7.03;;;2.00;;
7493;SDS011;3788;49.902;8.590;2023-02-01T15:59:00;6.47;;;1.93;;
7493;SDS011;3788;49.902;8.590;2023-02-01T16:01:28;7.53;;;1.80;;
7493;SDS011;3788;49.902;8.590;2023-02-01T16:04:02;5.97;;;1.77;;
7493;SDS011;3788;49.902;8.590;2023-02-01T16:06:38;7.73;;;1.90;;
7493;SDS011;3788;49.902;8.590;2023-02-01T16:09:13;6.03;;;2.50;;
7493;SDS011;3788;49.902;8.590;2023-02-01T16:11:41;8.40;;;3.10;;
7493;SDS011;3788;49.902;8.590;2023-02-01T16:14:14;5.53;;;2.47;;
7493;SDS011;3788;49.902;8.590;2023-02-01T16:16:41;6.77;;;2.40;;
7493;SDS011;3788;49.902;8.590;2023-02-01T16:19:08;5.90;;;2.17;;